createdAt,value
2023-05-10T00:01:53.003Z,5.43
2023-05-10T00:04:37.904Z,7.20
2023-05-10T00:07:22.671Z,7.90
2023-05-10T00:10:08.114Z,7.05
2023-05-10T00:12:52.874Z,7.90
2023-05-10T00:15:37.782Z,8.57
2023-05-10T00:18:22.860Z,8.85
2023-05-10T00:21:07.693Z,8.00
2023-05-10T00:23:52.545Z,10.48
2023-05-10T00:26:37.304Z,8.32
2023-05-10T00:29:22.194Z,7.80
2023-05-10T00:32:07.478Z,7.93
2023-05-10T00:34:52.421Z,7.20
2023-05-10T00:37:37.065Z,8.15
2023-05-10T00:40:22.206Z,8.25
2023-05-10T00:43:07.197Z,8.07
2023-05-10T00:45:53.026Z,8.70
2023-05-10T00:48:38.357Z,6.63
2023-05-10T00:51:23.180Z,9.20
2023-05-10T00:54:08.307Z,6.75
2023-05-10T00:56:53.474Z,6.05
2023-05-10T00:59:38.458Z,6.82
2023-05-10T01:02:23.662Z,5.63
2023-05-10T01:05:09.276Z,8.43
2023-05-10T01:07:54.322Z,6.53
2023-05-10T01:10:39.428Z,7.55
2023-05-10T01:13:36.973Z,5.45
2023-05-10T01:16:22.189Z,7.10
2023-05-10T01:19:18.167Z,6.07
2023-05-10T01:22:43.894Z,5.18
2023-05-10T01:25:50.210Z,4.72
2023-05-10T01:28:37.926Z,5.65
2023-05-10T01:31:47.761Z,5.67
2023-05-10T01:34:40.341Z,4.90
2023-05-10T01:37:51.331Z,5.53
2023-05-10T01:41:10.175Z,5.30
2023-05-10T01:44:13.869Z,4.63
2023-05-10T01:47:05.335Z,4.63
2023-05-10T01:49:53.275Z,4.22
2023-05-10T01:52:41.774Z,5.22
2023-05-10T01:55:31.617Z,3.95
2023-05-10T01:58:21.847Z,3.70
2023-05-10T02:01:09.195Z,4.13
2023-05-10T02:03:56.485Z,5.68
2023-05-10T02:06:43.391Z,4.97
2023-05-10T02:09:30.797Z,4.85
2023-05-10T02:12:16.944Z,5.32
2023-05-10T02:15:06.557Z,6.03
2023-05-10T02:17:53.485Z,5.43
2023-05-10T02:20:39.386Z,8.18
2023-05-10T02:23:25.198Z,8.07
2023-05-10T02:26:11.495Z,5.72
2023-05-10T02:28:57.962Z,8.13
2023-05-10T02:31:44.502Z,7.65
2023-05-10T02:34:30.802Z,7.00
2023-05-10T02:37:17.542Z,8.30
2023-05-10T02:40:04.272Z,7.18
2023-05-10T02:42:53.072Z,6.73
2023-05-10T02:45:39.820Z,6.45
2023-05-10T02:48:25.361Z,7.38
2023-05-10T02:51:14.781Z,7.35
2023-05-10T02:54:07.903Z,8.43
2023-05-10T02:56:59.375Z,6.67
2023-05-10T02:59:45.881Z,8.40
2023-05-10T03:02:31.678Z,9.43
2023-05-10T03:05:16.630Z,8.73
2023-05-10T03:08:04.770Z,13.27
2023-05-10T03:11:05.659Z,8.83
2023-05-10T03:14:22.214Z,12.82
2023-05-10T03:17:20.066Z,9.68
2023-05-10T03:20:10.661Z,12.18
2023-05-10T03:23:11.441Z,8.45
2023-05-10T03:25:56.582Z,10.20
2023-05-10T03:28:42.390Z,8.25
2023-05-10T03:31:28.177Z,10.23
2023-05-10T03:34:13.165Z,10.18
2023-05-10T03:36:58.234Z,9.25
2023-05-10T03:39:43.647Z,8.97
2023-05-10T03:42:28.498Z,9.65
2023-05-10T03:45:13.823Z,10.07
2023-05-10T03:47:59.088Z,13.77
2023-05-10T03:50:44.746Z,10.77
2023-05-10T03:53:29.834Z,13.53
2023-05-10T03:56:15.009Z,10.35
2023-05-10T03:59:00.325Z,11.38
2023-05-10T04:01:45.069Z,11.25
2023-05-10T04:04:30.061Z,19.30
2023-05-10T04:07:15.280Z,12.00
2023-05-10T04:10:00.006Z,13.07
2023-05-10T04:12:44.928Z,13.85
2023-05-10T04:15:30.188Z,14.65
2023-05-10T04:18:15.256Z,12.90
2023-05-10T04:21:00.270Z,12.83
2023-05-10T04:23:45.112Z,14.07
2023-05-10T04:26:30.281Z,11.95
2023-05-10T04:29:15.208Z,19.58
2023-05-10T04:32:00.211Z,13.75
2023-05-10T04:34:45.128Z,14.13
2023-05-10T04:37:30.183Z,13.95
2023-05-10T04:40:15.421Z,15.70
2023-05-10T04:43:00.926Z,13.25
2023-05-10T04:45:45.672Z,15.68
2023-05-10T04:48:30.956Z,13.53
2023-05-10T04:51:16.057Z,13.60
2023-05-10T04:54:06.043Z,15.60
2023-05-10T04:56:51.828Z,14.32
2023-05-10T04:59:38.383Z,15.52
2023-05-10T05:02:24.501Z,14.20
2023-05-10T05:05:09.743Z,15.85
2023-05-10T05:07:54.573Z,14.93
2023-05-10T05:10:39.656Z,13.95
2023-05-10T05:13:25.196Z,15.20
2023-05-10T05:16:11.674Z,13.87
2023-05-10T05:18:57.266Z,14.30
2023-05-10T05:21:42.278Z,13.82
2023-05-10T05:24:27.461Z,14.07
2023-05-10T05:27:12.574Z,15.23
2023-05-10T05:29:57.615Z,16.17
2023-05-10T05:32:42.541Z,16.13
2023-05-10T05:35:27.568Z,15.88
2023-05-10T05:38:12.537Z,13.55
2023-05-10T05:40:57.885Z,17.90
2023-05-10T05:43:42.731Z,13.40
2023-05-10T05:46:27.925Z,16.25
2023-05-10T05:49:13.213Z,17.00
2023-05-10T05:52:00.845Z,16.75
2023-05-10T05:54:45.644Z,16.75
2023-05-10T05:57:30.849Z,14.23
2023-05-10T06:00:16.353Z,18.85
2023-05-10T06:03:01.179Z,26.75
2023-05-10T06:05:46.085Z,25.20
2023-05-10T06:08:31.056Z,18.42
2023-05-10T06:11:16.132Z,15.47
2023-05-10T06:14:02.569Z,13.82
2023-05-10T06:16:47.715Z,17.40
2023-05-10T06:19:32.840Z,13.65
2023-05-10T06:22:18.033Z,14.45
2023-05-10T06:25:03.474Z,12.33
2023-05-10T06:27:52.705Z,13.98
2023-05-10T06:30:38.942Z,15.57
2023-05-10T06:33:23.926Z,19.00
2023-05-10T06:36:08.911Z,16.73
2023-05-10T06:38:53.844Z,14.20
2023-05-10T06:41:38.659Z,14.45
2023-05-10T06:44:23.602Z,14.13
2023-05-10T06:47:08.677Z,14.00
2023-05-10T06:49:53.838Z,11.98
2023-05-10T06:52:39.011Z,12.33
2023-05-10T06:55:24.505Z,12.32
2023-05-10T06:58:09.535Z,11.60
2023-05-10T07:00:54.686Z,9.23
2023-05-10T07:03:39.765Z,9.88
2023-05-10T07:06:33.462Z,11.37
2023-05-10T07:09:18.891Z,9.57
2023-05-10T07:12:04.471Z,10.63
2023-05-10T07:14:49.620Z,9.52
2023-05-10T07:17:34.541Z,9.63
2023-05-10T07:20:19.937Z,7.67
2023-05-10T07:23:04.747Z,10.43
2023-05-10T07:25:52.356Z,10.30
2023-05-10T07:28:38.423Z,9.85
2023-05-10T07:31:23.455Z,8.95
2023-05-10T07:34:08.588Z,9.17
2023-05-10T07:36:53.864Z,8.02
2023-05-10T07:39:39.005Z,12.25
2023-05-10T07:42:23.870Z,9.43
2023-05-10T07:45:09.572Z,9.05
2023-05-10T07:47:54.565Z,10.97
2023-05-10T07:50:39.191Z,7.10
2023-05-10T07:53:24.406Z,10.25
2023-05-10T07:56:26.194Z,10.77
2023-05-10T07:59:12.732Z,12.95
2023-05-10T08:01:57.908Z,10.90
2023-05-10T08:04:43.133Z,8.80
2023-05-10T08:07:28.074Z,9.30
2023-05-10T08:10:12.979Z,9.00
2023-05-10T08:12:59.268Z,6.18
2023-05-10T08:15:44.500Z,7.90
2023-05-10T08:18:29.367Z,6.57
2023-05-10T08:21:15.522Z,8.23
2023-05-10T08:24:00.404Z,6.35
2023-05-10T08:26:45.235Z,3.15
2023-05-10T08:29:32.875Z,2.73
2023-05-10T08:32:23.831Z,2.75
2023-05-10T08:35:08.548Z,2.53
2023-05-10T08:37:53.733Z,3.47
2023-05-10T08:40:38.763Z,1.50
2023-05-10T08:43:29.046Z,1.53
2023-05-10T08:46:20.672Z,2.78
2023-05-10T08:49:08.520Z,1.90
2023-05-10T08:51:56.751Z,2.05
2023-05-10T08:54:42.402Z,2.13
2023-05-10T08:57:27.555Z,1.50
2023-05-10T09:00:14.293Z,4.43
2023-05-10T09:03:00.781Z,2.72
2023-05-10T09:05:46.214Z,4.50
2023-05-10T09:08:31.958Z,3.05
2023-05-10T09:11:17.966Z,2.00
2023-05-10T09:14:03.595Z,2.40
2023-05-10T09:16:48.811Z,1.70
2023-05-10T09:19:33.870Z,2.00
2023-05-10T09:22:18.915Z,3.75
2023-05-10T09:25:07.645Z,4.07
2023-05-10T09:27:53.384Z,5.25
2023-05-10T09:30:38.455Z,5.53
2023-05-10T09:33:23.236Z,6.13
2023-05-10T09:36:09.151Z,7.47
2023-05-10T09:38:54.376Z,7.90
2023-05-10T09:41:43.137Z,10.13
2023-05-10T09:44:28.223Z,11.50
2023-05-10T09:47:18.669Z,15.18
2023-05-10T09:50:05.127Z,13.55
2023-05-10T09:53:02.390Z,12.10
2023-05-10T09:55:47.578Z,15.90
2023-05-10T09:58:37.262Z,13.18
2023-05-10T10:01:22.397Z,14.98
2023-05-10T10:04:10.218Z,17.30
2023-05-10T10:07:05.256Z,13.67
2023-05-10T10:09:50.674Z,12.60
2023-05-10T10:12:36.600Z,13.65
2023-05-10T10:15:23.265Z,10.88
2023-05-10T10:18:08.832Z,11.07
2023-05-10T10:20:55.309Z,11.27
2023-05-10T10:23:40.154Z,10.10
2023-05-10T10:26:25.954Z,9.88
2023-05-10T10:29:21.287Z,15.25
2023-05-10T10:32:55.321Z,10.70
2023-05-10T10:35:40.985Z,13.77
2023-05-10T10:38:26.329Z,9.13
2023-05-10T10:41:27.685Z,7.47
2023-05-10T10:44:31.662Z,7.57
2023-05-10T10:47:23.965Z,6.55
2023-05-10T10:50:09.216Z,4.87
2023-05-10T10:52:54.130Z,4.03
2023-05-10T10:55:49.359Z,3.00
2023-05-10T10:58:34.892Z,4.88
2023-05-10T11:01:20.413Z,2.80
2023-05-10T11:04:05.459Z,2.60
2023-05-10T11:06:50.567Z,3.38
2023-05-10T11:09:41.042Z,2.50
2023-05-10T11:12:26.095Z,2.38
2023-05-10T11:15:11.243Z,1.88
2023-05-10T11:17:56.734Z,1.43
2023-05-10T11:20:42.074Z,2.55
2023-05-10T11:23:57.125Z,2.47
2023-05-10T11:26:43.076Z,3.22
2023-05-10T11:29:27.906Z,2.90
2023-05-10T11:32:13.979Z,2.03
2023-05-10T11:34:58.911Z,2.95
2023-05-10T11:37:44.741Z,2.83
2023-05-10T11:40:29.789Z,2.38
2023-05-10T11:43:14.556Z,2.53
2023-05-10T11:45:59.603Z,2.77
2023-05-10T11:48:44.805Z,2.30
2023-05-10T11:51:29.497Z,3.83
2023-05-10T11:54:14.765Z,2.65
2023-05-10T11:56:59.437Z,3.20
2023-05-10T11:59:44.387Z,2.17
2023-05-10T12:02:30.208Z,4.82
2023-05-10T12:05:16.006Z,2.53
2023-05-10T12:08:14.560Z,3.45
2023-05-10T12:11:08.252Z,2.95
2023-05-10T12:13:54.015Z,2.33
2023-05-10T12:16:38.988Z,2.35
2023-05-10T12:19:24.012Z,2.83
2023-05-10T12:22:09.206Z,2.42
2023-05-10T12:24:53.931Z,2.10
2023-05-10T12:27:38.834Z,3.63
2023-05-10T12:30:28.883Z,4.93
2023-05-10T12:33:15.999Z,3.10
2023-05-10T12:36:00.868Z,1.90
2023-05-10T12:38:48.932Z,1.63
2023-05-10T12:41:34.114Z,1.90
2023-05-10T12:44:19.394Z,2.92
2023-05-10T12:47:04.588Z,3.45
2023-05-10T12:49:49.607Z,3.35
2023-05-10T12:52:34.584Z,2.00
2023-05-10T12:55:19.609Z,1.67
2023-05-10T12:58:04.517Z,1.63
2023-05-10T13:00:49.714Z,1.90
2023-05-10T13:03:34.817Z,1.65
2023-05-10T13:06:19.970Z,2.90
2023-05-10T13:09:05.397Z,2.47
2023-05-10T13:11:50.613Z,3.00
2023-05-10T13:14:35.379Z,1.42
2023-05-10T13:17:20.518Z,2.13
2023-05-10T13:20:05.740Z,2.25
2023-05-10T13:22:52.197Z,2.97
2023-05-10T13:25:37.197Z,2.15
2023-05-10T13:28:22.114Z,1.85
2023-05-10T13:31:08.316Z,2.38
2023-05-10T13:33:53.416Z,2.08
2023-05-10T13:36:39.142Z,3.07
2023-05-10T13:39:24.250Z,2.67
2023-05-10T13:42:09.625Z,1.90
2023-05-10T13:44:54.549Z,1.73
2023-05-10T13:47:39.334Z,2.05
2023-05-10T13:50:24.150Z,2.50
2023-05-10T13:53:09.317Z,1.70
2023-05-10T13:55:54.150Z,2.55
2023-05-10T13:58:38.946Z,1.50
2023-05-10T14:01:24.141Z,1.45
2023-05-10T14:04:11.186Z,1.70
2023-05-10T14:06:56.688Z,3.17
2023-05-10T14:09:41.891Z,2.00
2023-05-10T14:12:26.704Z,2.22
2023-05-10T14:15:12.516Z,2.10
2023-05-10T14:17:57.913Z,2.13
2023-05-10T14:20:42.727Z,3.13
2023-05-10T14:23:29.485Z,1.70
2023-05-10T14:26:14.172Z,1.75
2023-05-10T14:29:00.199Z,1.60
2023-05-10T14:31:45.129Z,1.90
2023-05-10T14:34:30.630Z,1.90
2023-05-10T14:37:16.402Z,4.07
2023-05-10T14:40:01.321Z,2.30
2023-05-10T14:42:46.090Z,3.45
2023-05-10T14:45:31.052Z,2.80
2023-05-10T14:48:18.232Z,3.85
2023-05-10T14:51:04.369Z,5.47
2023-05-10T14:53:50.170Z,2.45
2023-05-10T14:56:35.141Z,1.90
2023-05-10T14:59:21.516Z,7.80
2023-05-10T15:02:06.761Z,6.63
2023-05-10T15:04:52.219Z,2.47
2023-05-10T15:07:37.562Z,2.90
2023-05-10T15:10:22.650Z,2.92
2023-05-10T15:13:07.534Z,2.50
2023-05-10T15:15:52.843Z,3.00
2023-05-10T15:18:37.927Z,2.13
2023-05-10T15:21:22.668Z,2.45
2023-05-10T15:24:07.507Z,1.75
2023-05-10T15:26:52.284Z,1.70
2023-05-10T15:29:37.511Z,2.20
2023-05-10T15:32:22.715Z,4.47
2023-05-10T15:35:11.329Z,2.38
2023-05-10T15:37:56.429Z,2.35
2023-05-10T15:40:41.355Z,2.37
2023-05-10T15:43:26.148Z,3.17
2023-05-10T15:46:11.091Z,5.38
2023-05-10T15:48:59.138Z,2.65
2023-05-10T15:51:44.407Z,3.33
2023-05-10T15:54:29.273Z,4.30
2023-05-10T15:57:14.129Z,2.50
2023-05-10T15:59:59.202Z,3.58
2023-05-10T16:02:44.110Z,2.97
2023-05-10T16:05:32.472Z,2.55
2023-05-10T16:08:17.457Z,4.40
2023-05-10T16:11:03.030Z,3.20
2023-05-10T16:13:47.851Z,2.92
2023-05-10T16:16:33.105Z,2.90
2023-05-10T16:19:18.257Z,3.40
2023-05-10T16:22:03.722Z,3.23
2023-05-10T16:24:48.734Z,3.35
2023-05-10T16:27:33.467Z,3.47
2023-05-10T16:30:18.650Z,4.25
2023-05-10T16:33:03.810Z,4.38
2023-05-10T16:35:48.952Z,2.67
2023-05-10T16:38:34.132Z,4.88
2023-05-10T16:41:19.377Z,3.28
2023-05-10T16:44:04.411Z,2.35
2023-05-10T16:46:49.268Z,3.63
2023-05-10T16:49:36.146Z,4.57
2023-05-10T16:52:21.179Z,2.42
2023-05-10T16:55:06.497Z,2.92
2023-05-10T16:57:51.750Z,5.45
2023-05-10T17:00:36.816Z,3.95
2023-05-10T17:03:22.174Z,3.73
2023-05-10T17:06:07.354Z,3.78
2023-05-10T17:08:52.347Z,3.88
2023-05-10T17:11:37.465Z,3.47
2023-05-10T17:14:22.950Z,5.47
2023-05-10T17:17:08.021Z,3.90
2023-05-10T17:19:53.141Z,5.28
2023-05-10T17:22:38.147Z,4.05
2023-05-10T17:25:22.986Z,2.22
2023-05-10T17:28:08.074Z,4.20
2023-05-10T17:30:57.716Z,4.27
2023-05-10T17:33:42.519Z,2.58
2023-05-10T17:36:28.391Z,2.47
2023-05-10T17:39:13.117Z,2.25
2023-05-10T17:41:58.061Z,1.85
2023-05-10T17:44:43.806Z,2.53
2023-05-10T17:47:29.016Z,5.32
2023-05-10T17:50:14.307Z,3.47
2023-05-10T17:52:59.280Z,2.05
2023-05-10T17:55:44.223Z,5.63
2023-05-10T17:58:29.474Z,1.70
2023-05-10T18:01:14.484Z,2.38
2023-05-10T18:03:59.561Z,5.55
2023-05-10T18:06:44.696Z,2.53
2023-05-10T18:09:29.636Z,1.98
2023-05-10T18:12:14.577Z,2.57
2023-05-10T18:15:00.826Z,3.22
2023-05-10T18:17:45.676Z,3.50
2023-05-10T18:20:31.707Z,2.13
2023-05-10T18:23:16.877Z,6.50
2023-05-10T18:26:02.032Z,2.17
2023-05-10T18:28:47.450Z,4.70
2023-05-10T18:31:32.391Z,1.95
2023-05-10T18:34:18.801Z,2.70
2023-05-10T18:37:07.339Z,1.98
2023-05-10T18:39:52.765Z,3.33
2023-05-10T18:42:38.005Z,1.42
2023-05-10T18:45:23.157Z,2.33
2023-05-10T18:48:08.311Z,2.30
2023-05-10T18:50:53.412Z,4.30
2023-05-10T18:53:38.194Z,2.00
2023-05-10T18:56:23.653Z,2.03
2023-05-10T18:59:08.483Z,2.90
2023-05-10T19:01:54.950Z,2.60
2023-05-10T19:04:41.470Z,2.05
2023-05-10T19:07:26.409Z,3.53
2023-05-10T19:10:12.798Z,2.60
2023-05-10T19:12:58.004Z,2.72
2023-05-10T19:15:42.984Z,3.35
2023-05-10T19:18:28.085Z,3.17
2023-05-10T19:21:13.115Z,6.13
2023-05-10T19:23:58.517Z,2.28
2023-05-10T19:26:43.533Z,4.32
2023-05-10T19:29:28.549Z,5.10
2023-05-10T19:32:13.406Z,4.57
2023-05-10T19:34:58.617Z,1.80
2023-05-10T19:37:47.201Z,2.95
2023-05-10T19:40:32.152Z,3.13
2023-05-10T19:43:17.652Z,3.75
2023-05-10T19:46:03.290Z,2.85
2023-05-10T19:48:48.136Z,2.87
2023-05-10T19:51:33.372Z,3.40
2023-05-10T19:54:18.559Z,3.63
2023-05-10T19:57:04.265Z,3.42
2023-05-10T19:59:49.296Z,5.45
2023-05-10T20:02:34.438Z,4.10
2023-05-10T20:05:19.491Z,4.78
2023-05-10T20:08:04.699Z,3.92
2023-05-10T20:10:49.824Z,5.05
2023-05-10T20:13:34.714Z,4.15
2023-05-10T20:16:19.538Z,4.30
2023-05-10T20:19:04.805Z,3.75
2023-05-10T20:21:49.808Z,4.32
2023-05-10T20:24:36.001Z,4.47
2023-05-10T20:27:20.973Z,5.30
2023-05-10T20:30:06.932Z,4.03
2023-05-10T20:32:52.048Z,3.58
2023-05-10T20:35:37.069Z,4.13
2023-05-10T20:38:21.882Z,3.85
2023-05-10T20:41:07.370Z,4.38
2023-05-10T20:43:52.363Z,5.83
2023-05-10T20:46:37.696Z,6.00
2023-05-10T20:49:22.902Z,3.63
2023-05-10T20:52:07.747Z,4.13
2023-05-10T20:54:52.740Z,4.07
2023-05-10T20:57:37.842Z,5.50
2023-05-10T21:00:22.623Z,5.30
2023-05-10T21:03:07.729Z,4.78
2023-05-10T21:05:52.553Z,4.15
2023-05-10T21:08:37.721Z,5.03
2023-05-10T21:11:22.616Z,4.03
2023-05-10T21:14:08.505Z,4.05
2023-05-10T21:16:54.366Z,4.15
2023-05-10T21:19:39.161Z,6.70
2023-05-10T21:22:24.216Z,3.28
2023-05-10T21:25:09.485Z,4.83
2023-05-10T21:27:54.629Z,4.28
2023-05-10T21:30:39.729Z,6.20
2023-05-10T21:33:24.789Z,2.38
2023-05-10T21:36:09.600Z,2.20
2023-05-10T21:38:54.656Z,2.70
2023-05-10T21:41:39.980Z,2.90
2023-05-10T21:44:24.801Z,3.53
2023-05-10T21:47:09.853Z,3.70
2023-05-10T21:49:54.969Z,3.67
2023-05-10T21:52:39.934Z,3.80
2023-05-10T21:55:25.029Z,2.15
2023-05-10T21:58:10.868Z,3.80
2023-05-10T22:00:55.959Z,5.18
2023-05-10T22:03:40.895Z,2.53
2023-05-10T22:06:25.921Z,2.23
2023-05-10T22:09:11.209Z,1.65
2023-05-10T22:11:56.327Z,1.80
2023-05-10T22:14:41.290Z,3.30
2023-05-10T22:17:26.460Z,2.03
2023-05-10T22:20:11.482Z,2.77
2023-05-10T22:22:56.647Z,2.40
2023-05-10T22:25:41.862Z,2.97
2023-05-10T22:28:26.818Z,2.55
2023-05-10T22:31:12.451Z,4.05
2023-05-10T22:33:57.712Z,3.17
2023-05-10T22:36:42.700Z,4.93
2023-05-10T22:39:27.856Z,2.95
2023-05-10T22:42:13.050Z,2.88
2023-05-10T22:44:58.719Z,3.20
2023-05-10T22:47:43.612Z,3.20
2023-05-10T22:50:30.022Z,2.42
2023-05-10T22:53:15.093Z,1.35
2023-05-10T22:56:00.043Z,1.30
2023-05-10T22:58:45.228Z,1.20
2023-05-10T23:01:30.085Z,1.40
2023-05-10T23:04:15.682Z,2.67
2023-05-10T23:07:00.676Z,1.25
2023-05-10T23:09:46.010Z,1.92
2023-05-10T23:12:31.353Z,2.95
2023-05-10T23:15:16.134Z,0.77
2023-05-10T23:18:01.469Z,1.00
2023-05-10T23:20:46.432Z,1.02
2023-05-10T23:23:33.873Z,0.63
2023-05-10T23:26:18.966Z,1.00
2023-05-10T23:29:03.704Z,1.03
2023-05-10T23:31:49.028Z,1.20
2023-05-10T23:34:34.147Z,1.85
2023-05-10T23:37:19.072Z,4.93
2023-05-10T23:40:04.417Z,1.05
2023-05-10T23:42:49.323Z,0.70
2023-05-10T23:45:34.625Z,1.15
2023-05-10T23:48:19.888Z,0.70
2023-05-10T23:51:04.894Z,0.85
2023-05-10T23:53:50.186Z,0.70
2023-05-10T23:56:35.042Z,3.53
2023-05-10T23:59:19.796Z,0.68
